Thursday, June 30, 2016, 8:10 AM EDT

KMDT, Harrisburg International Airport

Location: Middletown, PA, United States Lat: 40.2
Local Time: 8:10 AM EDT (12:10 GMT) Lon: -76.767
Time Zone: US/Eastern Elev: 308 ft

Show me the last for .
Show Decoded

2016-06-30 07:56 METAR KMDT 301156Z 31007KT 10SM CLR 21/13 A3005 RMK AO2 SLP174 T02060133 10206
                 20178 51008 =
2016-06-30 06:56 METAR KMDT 301056Z 34004KT 10SM SCT035 19/13 A3004 RMK AO2 SLP170 T01890128 =
2016-06-30 05:56 METAR KMDT 300956Z 33005KT 10SM CLR 18/12 A3003 RMK AO2 SLP170 T01780122 =
2016-06-30 04:56 METAR KMDT 300856Z VRB04KT 10SM CLR 18/13 A3002 RMK AO2 SLP166 T01780128 51002 =
2016-06-30 03:56 METAR KMDT 300756Z 33006KT 10SM FEW080 19/13 A3002 RMK AO2 SLP164 T01890128 =
2016-06-30 02:56 METAR KMDT 300656Z 32009KT 10SM FEW080 19/13 A3003 RMK AO2 SLP167 T01890128 =
2016-06-30 01:56 METAR KMDT 300556Z 31008KT 10SM CLR 19/13 A3002 RMK AO2 SLP164 T01940128 10239
                 20189 53007 =
2016-06-30 00:56 METAR KMDT 300456Z 32005KT 10SM CLR 19/13 A3000 =
2016-06-29 23:56 METAR KMDT 300356Z 32005KT 10SM CLR 19/13 A3000 =
2016-06-29 22:56 METAR KMDT 300256Z 29005KT 10SM CLR 21/14 A3000 RMK AO2 SLP156 T02060139 51014 =
2016-06-29 21:56 METAR KMDT 300156Z 29006KT 10SM CLR 21/14 A2998 =
2016-06-29 20:56 METAR KMDT 300056Z 32005KT 10SM CLR 23/13 A2997 RMK AO2 SLP146 T02330128 =
2016-06-29 19:56 METAR KMDT 292356Z 31013KT 10SM FEW050 24/13 A2995 =
2016-06-29 18:56 METAR KMDT 292256Z 30011KT 10SM FEW050 25/12 A2994 =
2016-06-29 17:56 METAR KMDT 292156Z 29009KT 10SM FEW055 26/13 A2994 =
2016-06-29 16:56 METAR KMDT 292056Z 30012KT 10SM SCT055 26/14 A2994 RMK AO2 SLP139 T02610139
                 53001 =
2016-06-29 15:56 METAR KMDT 291956Z 29010KT 10SM FEW049 SCT065 26/13 A2994 =
2016-06-29 14:56 METAR KMDT 291856Z 30012G18KT 10SM FEW050 SCT060 26/13 A2994 RMK AO2 SLP139
                 T02560133 =
2016-06-29 13:56 METAR KMDT 291756Z 32011KT 10SM SCT048 24/13 A2994 RMK AO2 SLP138 T02440133
                 10256 20211 55003 =
2016-06-29 12:56 METAR KMDT 291656Z 30006KT 10SM SCT044 24/13 A2994 RMK AO2 SLP138 T02440128 =
2016-06-29 11:56 METAR KMDT 291556Z 32011KT 10SM SCT040 24/13 A2995 RMK AO2 SLP141 T02440128 =
2016-06-29 10:56 METAR KMDT 291456Z 33010KT 10SM FEW035 23/13 A2995 RMK AO2 SLP141 T02330128
                 51004 =
2016-06-29 09:56 METAR KMDT 291356Z 32010G16KT 10SM FEW035 23/13 A2995 RMK AO2 SLP141 T02280133 =
2016-06-29 08:56 METAR KMDT 291256Z 31009KT 10SM FEW042 21/13 A2995 =

Support USWX by starting your Amazon purchase here.